sensor_id;sensor_type;location;lat;lon;timestamp;temperature;humidity
14682;DHT22;7429;52.498;13.480;2022-12-11T00:01:08;-0.70;99.90
14682;DHT22;7429;52.498;13.480;2022-12-11T00:04:13;-0.70;99.90
14682;DHT22;7429;52.498;13.480;2022-12-11T00:07:16;-0.70;99.90
14682;DHT22;7429;52.498;13.480;2022-12-11T00:10:19;-0.70;99.90
14682;DHT22;7429;52.498;13.480;2022-12-11T00:13:23;-0.70;99.90
14682;DHT22;7429;52.498;13.480;2022-12-11T00:16:26;-0.70;99.90
14682;DHT22;7429;52.498;13.480;2022-12-11T00:19:30;-0.80;99.90
14682;DHT22;7429;52.498;13.480;2022-12-11T00:22:33;-0.70;99.90
14682;DHT22;7429;52.498;13.480;2022-12-11T00:25:40;-0.70;99.90
14682;DHT22;7429;52.498;13.480;2022-12-11T00:28:44;-0.60;99.90
14682;DHT22;7429;52.498;13.480;2022-12-11T00:31:47;-0.60;99.90
14682;DHT22;7429;52.498;13.480;2022-12-11T00:34:52;-0.60;99.90
14682;DHT22;7429;52.498;13.480;2022-12-11T00:37:55;-0.50;99.90
14682;DHT22;7429;52.498;13.480;2022-12-11T00:40:58;-0.60;99.90
14682;DHT22;7429;52.498;13.480;2022-12-11T00:44:01;-0.60;99.90
14682;DHT22;7429;52.498;13.480;2022-12-11T00:47:05;-0.60;99.90
14682;DHT22;7429;52.498;13.480;2022-12-11T00:50:10;-0.70;99.90
14682;DHT22;7429;52.498;13.480;2022-12-11T00:53:13;-0.70;99.90
14682;DHT22;7429;52.498;13.480;2022-12-11T00:56:19;-0.70;99.90
14682;DHT22;7429;52.498;13.480;2022-12-11T00:59:23;-0.70;99.90
14682;DHT22;7429;52.498;13.480;2022-12-11T01:02:26;-0.70;99.90
14682;DHT22;7429;52.498;13.480;2022-12-11T01:05:31;-0.70;99.90
14682;DHT22;7429;52.498;13.480;2022-12-11T01:08:35;-0.70;99.90
14682;DHT22;7429;52.498;13.480;2022-12-11T01:11:40;-0.70;99.90
14682;DHT22;7429;52.498;13.480;2022-12-11T01:14:44;-0.80;99.90
14682;DHT22;7429;52.498;13.480;2022-12-11T01:17:50;-0.80;99.90
14682;DHT22;7429;52.498;13.480;2022-12-11T01:20:54;-0.70;99.90
14682;DHT22;7429;52.498;13.480;2022-12-11T01:23:57;-0.70;99.90
14682;DHT22;7429;52.498;13.480;2022-12-11T01:27:00;-0.70;99.90
14682;DHT22;7429;52.498;13.480;2022-12-11T01:30:05;-0.70;99.90
14682;DHT22;7429;52.498;13.480;2022-12-11T01:33:09;-0.80;99.90
14682;DHT22;7429;52.498;13.480;2022-12-11T01:36:15;-0.80;99.90
14682;DHT22;7429;52.498;13.480;2022-12-11T01:39:20;-0.80;99.90
14682;DHT22;7429;52.498;13.480;2022-12-11T01:42:24;-0.80;99.90
14682;DHT22;7429;52.498;13.480;2022-12-11T01:45:33;-0.80;99.90
14682;DHT22;7429;52.498;13.480;2022-12-11T01:48:39;-0.80;99.90
14682;DHT22;7429;52.498;13.480;2022-12-11T01:51:48;-0.80;99.90
14682;DHT22;7429;52.498;13.480;2022-12-11T01:54:53;-0.80;99.90
14682;DHT22;7429;52.498;13.480;2022-12-11T01:57:56;-0.90;99.90
14682;DHT22;7429;52.498;13.480;2022-12-11T02:00:59;-0.80;99.90
14682;DHT22;7429;52.498;13.480;2022-12-11T02:04:04;-0.70;99.90
14682;DHT22;7429;52.498;13.480;2022-12-11T02:07:09;-0.70;99.90
14682;DHT22;7429;52.498;13.480;2022-12-11T02:10:13;-0.70;99.90
14682;DHT22;7429;52.498;13.480;2022-12-11T02:13:22;-0.70;99.90
14682;DHT22;7429;52.498;13.480;2022-12-11T02:16:37;-0.70;99.90
14682;DHT22;7429;52.498;13.480;2022-12-11T02:19:55;-0.80;99.90
14682;DHT22;7429;52.498;13.480;2022-12-11T02:23:18;-0.80;99.90
14682;DHT22;7429;52.498;13.480;2022-12-11T02:26:53;-0.90;99.90
14682;DHT22;7429;52.498;13.480;2022-12-11T02:30:10;-0.80;99.90
14682;DHT22;7429;52.498;13.480;2022-12-11T02:33:15;-0.90;99.90
14682;DHT22;7429;52.498;13.480;2022-12-11T02:36:24;-0.80;99.90
14682;DHT22;7429;52.498;13.480;2022-12-11T02:39:28;-0.80;99.90
14682;DHT22;7429;52.498;13.480;2022-12-11T02:42:33;-0.90;99.90
14682;DHT22;7429;52.498;13.480;2022-12-11T02:45:39;-0.90;99.90
14682;DHT22;7429;52.498;13.480;2022-12-11T02:48:44;-0.90;99.90
14682;DHT22;7429;52.498;13.480;2022-12-11T02:51:51;-1.00;99.90
14682;DHT22;7429;52.498;13.480;2022-12-11T02:54:57;-1.00;99.90
14682;DHT22;7429;52.498;13.480;2022-12-11T02:58:06;-0.90;99.90
14682;DHT22;7429;52.498;13.480;2022-12-11T03:01:15;-0.90;99.90
14682;DHT22;7429;52.498;13.480;2022-12-11T03:04:20;-0.90;99.90
14682;DHT22;7429;52.498;13.480;2022-12-11T03:07:30;-0.80;99.90
14682;DHT22;7429;52.498;13.480;2022-12-11T03:10:34;-1.00;99.90
14682;DHT22;7429;52.498;13.480;2022-12-11T03:13:38;-1.00;99.90
14682;DHT22;7429;52.498;13.480;2022-12-11T03:16:50;-0.90;99.90
14682;DHT22;7429;52.498;13.480;2022-12-11T03:20:02;-0.90;99.90
14682;DHT22;7429;52.498;13.480;2022-12-11T03:23:17;-0.80;99.90
14682;DHT22;7429;52.498;13.480;2022-12-11T03:26:23;-0.90;99.90
14682;DHT22;7429;52.498;13.480;2022-12-11T03:29:31;-1.00;99.90
14682;DHT22;7429;52.498;13.480;2022-12-11T03:32:41;-1.10;99.90
14682;DHT22;7429;52.498;13.480;2022-12-11T03:35:52;-1.10;99.90
14682;DHT22;7429;52.498;13.480;2022-12-11T03:39:00;-1.10;99.90
14682;DHT22;7429;52.498;13.480;2022-12-11T03:42:07;-1.10;99.90
14682;DHT22;7429;52.498;13.480;2022-12-11T03:45:13;-1.10;99.90
14682;DHT22;7429;52.498;13.480;2022-12-11T03:48:20;-1.00;99.90
14682;DHT22;7429;52.498;13.480;2022-12-11T03:51:24;-1.10;99.90
14682;DHT22;7429;52.498;13.480;2022-12-11T03:54:28;-1.10;99.90
14682;DHT22;7429;52.498;13.480;2022-12-11T03:57:34;-1.00;99.90
14682;DHT22;7429;52.498;13.480;2022-12-11T04:00:38;-1.10;99.90
14682;DHT22;7429;52.498;13.480;2022-12-11T04:03:42;-1.10;99.90
14682;DHT22;7429;52.498;13.480;2022-12-11T04:06:45;-1.00;99.90
14682;DHT22;7429;52.498;13.480;2022-12-11T04:09:48;-1.10;99.90
14682;DHT22;7429;52.498;13.480;2022-12-11T04:12:51;-1.10;99.90
14682;DHT22;7429;52.498;13.480;2022-12-11T04:15:54;-1.10;99.90
14682;DHT22;7429;52.498;13.480;2022-12-11T04:18:58;-1.00;99.90
14682;DHT22;7429;52.498;13.480;2022-12-11T04:22:21;-1.10;99.90
14682;DHT22;7429;52.498;13.480;2022-12-11T04:25:42;-1.10;99.90
14682;DHT22;7429;52.498;13.480;2022-12-11T04:28:46;-1.00;99.90
14682;DHT22;7429;52.498;13.480;2022-12-11T04:31:49;-1.00;99.90
14682;DHT22;7429;52.498;13.480;2022-12-11T04:34:54;-1.00;99.90
14682;DHT22;7429;52.498;13.480;2022-12-11T04:37:57;-1.00;99.90
14682;DHT22;7429;52.498;13.480;2022-12-11T04:41:02;-1.00;99.90
14682;DHT22;7429;52.498;13.480;2022-12-11T04:44:06;-1.00;99.90
14682;DHT22;7429;52.498;13.480;2022-12-11T04:47:10;-0.90;99.90
14682;DHT22;7429;52.498;13.480;2022-12-11T04:50:15;-1.00;99.90
14682;DHT22;7429;52.498;13.480;2022-12-11T04:53:18;-1.00;99.90
14682;DHT22;7429;52.498;13.480;2022-12-11T04:56:21;-1.00;99.90
14682;DHT22;7429;52.498;13.480;2022-12-11T04:59:24;-1.10;99.90
14682;DHT22;7429;52.498;13.480;2022-12-11T05:02:27;-1.10;99.90
14682;DHT22;7429;52.498;13.480;2022-12-11T05:05:32;-1.10;99.90
14682;DHT22;7429;52.498;13.480;2022-12-11T05:08:37;-1.10;99.90
14682;DHT22;7429;52.498;13.480;2022-12-11T05:11:41;-1.00;99.90
14682;DHT22;7429;52.498;13.480;2022-12-11T05:14:45;-1.10;99.90
14682;DHT22;7429;52.498;13.480;2022-12-11T05:17:48;-1.10;99.90
14682;DHT22;7429;52.498;13.480;2022-12-11T05:20:56;-1.20;99.90
14682;DHT22;7429;52.498;13.480;2022-12-11T05:24:00;-1.20;99.90
14682;DHT22;7429;52.498;13.480;2022-12-11T05:27:03;-1.20;99.90
14682;DHT22;7429;52.498;13.480;2022-12-11T05:30:07;-1.20;99.90
14682;DHT22;7429;52.498;13.480;2022-12-11T05:33:11;-1.20;99.90
14682;DHT22;7429;52.498;13.480;2022-12-11T05:36:18;-1.20;99.90
14682;DHT22;7429;52.498;13.480;2022-12-11T05:39:23;-1.20;99.90
14682;DHT22;7429;52.498;13.480;2022-12-11T05:42:28;-1.20;99.90
14682;DHT22;7429;52.498;13.480;2022-12-11T05:45:31;-1.20;99.90
14682;DHT22;7429;52.498;13.480;2022-12-11T05:48:35;-1.20;99.90
14682;DHT22;7429;52.498;13.480;2022-12-11T05:51:40;-1.30;99.90
14682;DHT22;7429;52.498;13.480;2022-12-11T05:54:47;-1.30;99.90
14682;DHT22;7429;52.498;13.480;2022-12-11T05:57:50;-1.30;99.90
14682;DHT22;7429;52.498;13.480;2022-12-11T06:00:53;-1.40;99.90
14682;DHT22;7429;52.498;13.480;2022-12-11T06:03:57;-1.40;99.90
14682;DHT22;7429;52.498;13.480;2022-12-11T06:07:05;-1.30;99.90
14682;DHT22;7429;52.498;13.480;2022-12-11T06:10:09;-1.40;99.90
14682;DHT22;7429;52.498;13.480;2022-12-11T06:13:12;-1.40;99.90
14682;DHT22;7429;52.498;13.480;2022-12-11T06:16:16;-1.40;99.90
14682;DHT22;7429;52.498;13.480;2022-12-11T06:19:19;-1.40;99.90
14682;DHT22;7429;52.498;13.480;2022-12-11T06:22:24;-1.50;99.90
14682;DHT22;7429;52.498;13.480;2022-12-11T06:25:28;-1.50;99.90
14682;DHT22;7429;52.498;13.480;2022-12-11T06:28:31;-1.60;99.90
14682;DHT22;7429;52.498;13.480;2022-12-11T06:31:34;-1.60;99.90
14682;DHT22;7429;52.498;13.480;2022-12-11T06:34:37;-1.60;99.90
14682;DHT22;7429;52.498;13.480;2022-12-11T06:37:42;-1.60;99.90
14682;DHT22;7429;52.498;13.480;2022-12-11T06:40:45;-1.60;99.90
14682;DHT22;7429;52.498;13.480;2022-12-11T06:43:48;-1.60;99.90
14682;DHT22;7429;52.498;13.480;2022-12-11T06:46:51;-1.50;99.90
14682;DHT22;7429;52.498;13.480;2022-12-11T06:49:54;-1.50;99.90
14682;DHT22;7429;52.498;13.480;2022-12-11T06:52:59;-1.50;99.90
14682;DHT22;7429;52.498;13.480;2022-12-11T06:56:03;-1.50;99.90
14682;DHT22;7429;52.498;13.480;2022-12-11T06:59:10;-1.60;99.90
14682;DHT22;7429;52.498;13.480;2022-12-11T07:02:13;-1.60;99.90
14682;DHT22;7429;52.498;13.480;2022-12-11T07:05:17;-1.60;99.90
14682;DHT22;7429;52.498;13.480;2022-12-11T07:08:21;-1.50;99.90
14682;DHT22;7429;52.498;13.480;2022-12-11T07:11:25;-1.60;99.90
14682;DHT22;7429;52.498;13.480;2022-12-11T07:14:28;-1.60;99.90
14682;DHT22;7429;52.498;13.480;2022-12-11T07:17:31;-1.60;99.90
14682;DHT22;7429;52.498;13.480;2022-12-11T07:20:34;-1.70;99.90
14682;DHT22;7429;52.498;13.480;2022-12-11T07:23:39;-1.60;99.90
14682;DHT22;7429;52.498;13.480;2022-12-11T07:26:43;-1.60;99.90
14682;DHT22;7429;52.498;13.480;2022-12-11T07:29:46;-1.60;99.90
14682;DHT22;7429;52.498;13.480;2022-12-11T07:32:51;-1.70;99.90
14682;DHT22;7429;52.498;13.480;2022-12-11T07:35:54;-1.60;99.90
14682;DHT22;7429;52.498;13.480;2022-12-11T07:38:59;-1.70;99.90
14682;DHT22;7429;52.498;13.480;2022-12-11T07:42:02;-1.60;99.90
14682;DHT22;7429;52.498;13.480;2022-12-11T07:45:06;-1.70;99.90
14682;DHT22;7429;52.498;13.480;2022-12-11T07:48:10;-1.70;99.90
14682;DHT22;7429;52.498;13.480;2022-12-11T07:51:15;-1.80;99.90
14682;DHT22;7429;52.498;13.480;2022-12-11T07:54:21;-1.80;99.90
14682;DHT22;7429;52.498;13.480;2022-12-11T07:57:24;-1.90;99.90
14682;DHT22;7429;52.498;13.480;2022-12-11T08:00:30;-1.80;99.90
14682;DHT22;7429;52.498;13.480;2022-12-11T08:03:33;-1.90;99.90
14682;DHT22;7429;52.498;13.480;2022-12-11T08:06:38;-1.80;99.90
14682;DHT22;7429;52.498;13.480;2022-12-11T08:09:43;-1.80;99.90
14682;DHT22;7429;52.498;13.480;2022-12-11T08:12:46;-1.80;99.90
14682;DHT22;7429;52.498;13.480;2022-12-11T08:15:49;-1.90;99.90
14682;DHT22;7429;52.498;13.480;2022-12-11T08:19:00;-1.90;99.90
14682;DHT22;7429;52.498;13.480;2022-12-11T08:22:09;-1.90;99.90
14682;DHT22;7429;52.498;13.480;2022-12-11T08:25:13;-2.00;99.90
14682;DHT22;7429;52.498;13.480;2022-12-11T08:28:16;-1.90;99.90
14682;DHT22;7429;52.498;13.480;2022-12-11T08:31:21;-1.90;99.90
14682;DHT22;7429;52.498;13.480;2022-12-11T08:34:25;-1.90;99.90
14682;DHT22;7429;52.498;13.480;2022-12-11T08:37:28;-1.90;99.90
14682;DHT22;7429;52.498;13.480;2022-12-11T08:40:32;-1.90;99.90
14682;DHT22;7429;52.498;13.480;2022-12-11T08:43:36;-1.90;99.90
14682;DHT22;7429;52.498;13.480;2022-12-11T08:46:39;-1.90;99.90
14682;DHT22;7429;52.498;13.480;2022-12-11T08:49:43;-1.90;99.90
14682;DHT22;7429;52.498;13.480;2022-12-11T08:52:46;-1.90;99.90
14682;DHT22;7429;52.498;13.480;2022-12-11T08:55:51;-1.90;99.90
14682;DHT22;7429;52.498;13.480;2022-12-11T08:58:54;-1.80;99.90
14682;DHT22;7429;52.498;13.480;2022-12-11T09:01:59;-1.80;99.90
14682;DHT22;7429;52.498;13.480;2022-12-11T09:05:02;-1.80;99.90
14682;DHT22;7429;52.498;13.480;2022-12-11T09:08:08;-1.80;99.90
14682;DHT22;7429;52.498;13.480;2022-12-11T09:11:14;-1.80;99.90
14682;DHT22;7429;52.498;13.480;2022-12-11T09:14:21;-1.90;99.90
14682;DHT22;7429;52.498;13.480;2022-12-11T09:17:24;-1.90;99.90
14682;DHT22;7429;52.498;13.480;2022-12-11T09:20:27;-1.80;99.90
14682;DHT22;7429;52.498;13.480;2022-12-11T09:23:30;-1.80;99.90
14682;DHT22;7429;52.498;13.480;2022-12-11T09:26:35;-1.90;99.90
14682;DHT22;7429;52.498;13.480;2022-12-11T09:29:41;-1.80;99.90
14682;DHT22;7429;52.498;13.480;2022-12-11T09:32:44;-1.80;99.90
14682;DHT22;7429;52.498;13.480;2022-12-11T09:35:56;-1.80;99.90
14682;DHT22;7429;52.498;13.480;2022-12-11T09:39:00;-1.80;99.90
14682;DHT22;7429;52.498;13.480;2022-12-11T09:42:10;-1.80;99.90
14682;DHT22;7429;52.498;13.480;2022-12-11T09:45:17;-1.70;99.90
14682;DHT22;7429;52.498;13.480;2022-12-11T09:48:23;-1.70;99.90
14682;DHT22;7429;52.498;13.480;2022-12-11T09:51:29;-1.70;99.90
14682;DHT22;7429;52.498;13.480;2022-12-11T09:54:38;-1.70;99.90
14682;DHT22;7429;52.498;13.480;2022-12-11T09:57:53;-1.70;99.90
14682;DHT22;7429;52.498;13.480;2022-12-11T10:01:05;-1.70;99.90
14682;DHT22;7429;52.498;13.480;2022-12-11T10:04:30;-1.60;99.90
14682;DHT22;7429;52.498;13.480;2022-12-11T10:07:44;-1.60;99.90
14682;DHT22;7429;52.498;13.480;2022-12-11T10:10:56;-1.60;99.90
14682;DHT22;7429;52.498;13.480;2022-12-11T10:14:13;-1.60;99.90
14682;DHT22;7429;52.498;13.480;2022-12-11T10:17:27;-1.60;99.90
14682;DHT22;7429;52.498;13.480;2022-12-11T10:20:34;-1.50;99.90
14682;DHT22;7429;52.498;13.480;2022-12-11T10:23:52;-1.50;99.90
14682;DHT22;7429;52.498;13.480;2022-12-11T10:27:12;-1.50;99.90
14682;DHT22;7429;52.498;13.480;2022-12-11T10:30:21;-1.50;99.90
14682;DHT22;7429;52.498;13.480;2022-12-11T10:33:35;-1.50;99.90
14682;DHT22;7429;52.498;13.480;2022-12-11T10:36:53;-1.40;99.90
14682;DHT22;7429;52.498;13.480;2022-12-11T10:40:01;-1.40;99.90
14682;DHT22;7429;52.498;13.480;2022-12-11T10:43:04;-1.40;99.90
14682;DHT22;7429;52.498;13.480;2022-12-11T10:46:19;-1.40;99.90
14682;DHT22;7429;52.498;13.480;2022-12-11T10:49:26;-1.50;99.90
14682;DHT22;7429;52.498;13.480;2022-12-11T10:52:32;-1.50;99.90
14682;DHT22;7429;52.498;13.480;2022-12-11T10:55:43;-1.50;99.90
14682;DHT22;7429;52.498;13.480;2022-12-11T10:58:48;-1.40;99.90
14682;DHT22;7429;52.498;13.480;2022-12-11T11:01:53;-1.40;99.90
14682;DHT22;7429;52.498;13.480;2022-12-11T11:04:58;-1.40;99.90
14682;DHT22;7429;52.498;13.480;2022-12-11T11:08:10;-1.40;99.90
14682;DHT22;7429;52.498;13.480;2022-12-11T11:11:25;-1.40;99.90
14682;DHT22;7429;52.498;13.480;2022-12-11T11:14:30;-1.40;99.90
14682;DHT22;7429;52.498;13.480;2022-12-11T11:17:43;-1.30;99.90
14682;DHT22;7429;52.498;13.480;2022-12-11T11:20:56;-1.20;99.90
14682;DHT22;7429;52.498;13.480;2022-12-11T11:23:59;-1.20;99.90
14682;DHT22;7429;52.498;13.480;2022-12-11T11:27:11;-1.20;99.90
14682;DHT22;7429;52.498;13.480;2022-12-11T11:30:18;-1.10;99.90
14682;DHT22;7429;52.498;13.480;2022-12-11T11:33:24;-1.10;99.90
14682;DHT22;7429;52.498;13.480;2022-12-11T11:36:28;-1.20;99.90
14682;DHT22;7429;52.498;13.480;2022-12-11T11:39:36;-1.30;99.90
14682;DHT22;7429;52.498;13.480;2022-12-11T11:42:46;-1.30;99.90
14682;DHT22;7429;52.498;13.480;2022-12-11T11:45:57;-1.30;99.90
14682;DHT22;7429;52.498;13.480;2022-12-11T11:49:09;-1.30;99.90
14682;DHT22;7429;52.498;13.480;2022-12-11T11:52:20;-1.30;99.90
14682;DHT22;7429;52.498;13.480;2022-12-11T11:55:36;-1.20;99.90
14682;DHT22;7429;52.498;13.480;2022-12-11T11:58:45;-1.20;99.90
14682;DHT22;7429;52.498;13.480;2022-12-11T12:01:50;-1.20;99.90
14682;DHT22;7429;52.498;13.480;2022-12-11T12:04:57;-1.20;99.90
14682;DHT22;7429;52.498;13.480;2022-12-11T12:08:10;-1.10;99.90
14682;DHT22;7429;52.498;13.480;2022-12-11T12:11:22;-1.00;99.90
14682;DHT22;7429;52.498;13.480;2022-12-11T12:14:36;-1.00;99.90
14682;DHT22;7429;52.498;13.480;2022-12-11T12:18:07;-1.00;99.90
14682;DHT22;7429;52.498;13.480;2022-12-11T12:21:24;-0.90;99.90
14682;DHT22;7429;52.498;13.480;2022-12-11T12:24:37;-1.00;99.90
14682;DHT22;7429;52.498;13.480;2022-12-11T12:27:52;-0.90;99.90
14682;DHT22;7429;52.498;13.480;2022-12-11T12:31:13;-0.90;99.90
14682;DHT22;7429;52.498;13.480;2022-12-11T12:34:35;-0.90;99.90
14682;DHT22;7429;52.498;13.480;2022-12-11T12:37:53;-0.90;99.90
14682;DHT22;7429;52.498;13.480;2022-12-11T12:41:03;-0.90;99.90
14682;DHT22;7429;52.498;13.480;2022-12-11T12:44:18;-1.00;99.90
14682;DHT22;7429;52.498;13.480;2022-12-11T12:47:22;-1.00;99.90
14682;DHT22;7429;52.498;13.480;2022-12-11T12:50:35;-0.90;99.90
14682;DHT22;7429;52.498;13.480;2022-12-11T12:53:46;-0.90;99.90
14682;DHT22;7429;52.498;13.480;2022-12-11T12:56:51;-0.90;99.90
14682;DHT22;7429;52.498;13.480;2022-12-11T12:59:54;-0.90;99.90
14682;DHT22;7429;52.498;13.480;2022-12-11T13:02:59;-0.80;99.90
14682;DHT22;7429;52.498;13.480;2022-12-11T13:06:06;-0.80;99.90
14682;DHT22;7429;52.498;13.480;2022-12-11T13:09:15;-0.70;99.90
14682;DHT22;7429;52.498;13.480;2022-12-11T13:12:33;-0.70;99.90
14682;DHT22;7429;52.498;13.480;2022-12-11T13:15:43;-0.70;99.90
14682;DHT22;7429;52.498;13.480;2022-12-11T13:18:46;-0.60;99.90
14682;DHT22;7429;52.498;13.480;2022-12-11T13:21:55;-0.60;99.90
14682;DHT22;7429;52.498;13.480;2022-12-11T13:25:18;-0.70;99.90
14682;DHT22;7429;52.498;13.480;2022-12-11T13:28:45;-0.60;99.90
14682;DHT22;7429;52.498;13.480;2022-12-11T13:31:56;-0.70;99.90
14682;DHT22;7429;52.498;13.480;2022-12-11T13:35:05;-0.60;99.90
14682;DHT22;7429;52.498;13.480;2022-12-11T13:38:16;-0.70;99.90
14682;DHT22;7429;52.498;13.480;2022-12-11T13:41:23;-0.70;99.90
14682;DHT22;7429;52.498;13.480;2022-12-11T13:44:29;-0.70;99.90
14682;DHT22;7429;52.498;13.480;2022-12-11T13:47:35;-0.70;99.90
14682;DHT22;7429;52.498;13.480;2022-12-11T13:50:42;-0.70;99.90
14682;DHT22;7429;52.498;13.480;2022-12-11T13:53:45;-0.70;99.90
14682;DHT22;7429;52.498;13.480;2022-12-11T13:56:55;-0.70;99.90
14682;DHT22;7429;52.498;13.480;2022-12-11T13:59:59;-0.70;99.90
14682;DHT22;7429;52.498;13.480;2022-12-11T14:03:05;-0.70;99.90
14682;DHT22;7429;52.498;13.480;2022-12-11T14:06:09;-0.70;99.90
14682;DHT22;7429;52.498;13.480;2022-12-11T14:09:23;-0.70;99.90
14682;DHT22;7429;52.498;13.480;2022-12-11T14:12:29;-0.70;99.90
14682;DHT22;7429;52.498;13.480;2022-12-11T14:15:35;-0.80;99.90
14682;DHT22;7429;52.498;13.480;2022-12-11T14:18:40;-0.80;99.90
14682;DHT22;7429;52.498;13.480;2022-12-11T14:21:57;-0.80;99.90
14682;DHT22;7429;52.498;13.480;2022-12-11T14:25:12;-0.80;99.90
14682;DHT22;7429;52.498;13.480;2022-12-11T14:28:23;-0.80;99.90
14682;DHT22;7429;52.498;13.480;2022-12-11T14:31:30;-0.80;99.90
14682;DHT22;7429;52.498;13.480;2022-12-11T14:34:42;-0.80;99.90
14682;DHT22;7429;52.498;13.480;2022-12-11T14:37:46;-0.80;99.90
14682;DHT22;7429;52.498;13.480;2022-12-11T14:40:53;-0.90;99.90
14682;DHT22;7429;52.498;13.480;2022-12-11T14:44:01;-0.80;99.90
14682;DHT22;7429;52.498;13.480;2022-12-11T14:47:12;-0.80;99.90
14682;DHT22;7429;52.498;13.480;2022-12-11T14:50:20;-0.70;99.90
14682;DHT22;7429;52.498;13.480;2022-12-11T14:53:27;-0.80;99.90
14682;DHT22;7429;52.498;13.480;2022-12-11T14:56:33;-0.80;99.90
14682;DHT22;7429;52.498;13.480;2022-12-11T14:59:40;-0.80;99.90
14682;DHT22;7429;52.498;13.480;2022-12-11T15:02:56;-0.80;99.90
14682;DHT22;7429;52.498;13.480;2022-12-11T15:06:01;-0.80;99.90
14682;DHT22;7429;52.498;13.480;2022-12-11T15:09:17;-0.70;99.90
14682;DHT22;7429;52.498;13.480;2022-12-11T15:12:22;-0.70;99.90
14682;DHT22;7429;52.498;13.480;2022-12-11T15:15:27;-0.80;99.90
14682;DHT22;7429;52.498;13.480;2022-12-11T15:18:34;-0.70;99.90
14682;DHT22;7429;52.498;13.480;2022-12-11T15:21:39;-0.70;99.90
14682;DHT22;7429;52.498;13.480;2022-12-11T15:24:43;-0.70;99.90
14682;DHT22;7429;52.498;13.480;2022-12-11T15:27:52;-0.70;99.90
14682;DHT22;7429;52.498;13.480;2022-12-11T15:30:59;-0.70;99.90
14682;DHT22;7429;52.498;13.480;2022-12-11T15:34:21;-0.70;99.90
14682;DHT22;7429;52.498;13.480;2022-12-11T15:37:26;-0.70;99.90
14682;DHT22;7429;52.498;13.480;2022-12-11T15:40:30;-0.70;99.90
14682;DHT22;7429;52.498;13.480;2022-12-11T15:43:35;-0.80;99.90
14682;DHT22;7429;52.498;13.480;2022-12-11T15:46:40;-0.80;99.90
14682;DHT22;7429;52.498;13.480;2022-12-11T15:49:43;-0.70;99.90
14682;DHT22;7429;52.498;13.480;2022-12-11T15:52:46;-0.70;99.90
14682;DHT22;7429;52.498;13.480;2022-12-11T15:55:51;-0.70;99.90
14682;DHT22;7429;52.498;13.480;2022-12-11T15:58:59;-0.70;99.90
14682;DHT22;7429;52.498;13.480;2022-12-11T16:02:10;-0.70;99.90
14682;DHT22;7429;52.498;13.480;2022-12-11T16:05:13;-0.70;99.90
14682;DHT22;7429;52.498;13.480;2022-12-11T16:08:18;-0.70;99.90
14682;DHT22;7429;52.498;13.480;2022-12-11T16:11:22;-0.70;99.90
14682;DHT22;7429;52.498;13.480;2022-12-11T16:14:26;-0.70;99.90
14682;DHT22;7429;52.498;13.480;2022-12-11T16:17:30;-0.80;99.90
14682;DHT22;7429;52.498;13.480;2022-12-11T16:20:34;-0.80;99.90
14682;DHT22;7429;52.498;13.480;2022-12-11T16:23:38;-0.80;99.90
14682;DHT22;7429;52.498;13.480;2022-12-11T16:26:41;-0.80;99.90
14682;DHT22;7429;52.498;13.480;2022-12-11T16:29:44;-0.90;99.90
14682;DHT22;7429;52.498;13.480;2022-12-11T16:32:49;-0.80;99.90
14682;DHT22;7429;52.498;13.480;2022-12-11T16:35:52;-0.80;99.90
14682;DHT22;7429;52.498;13.480;2022-12-11T16:38:55;-0.90;99.90
14682;DHT22;7429;52.498;13.480;2022-12-11T16:41:58;-0.90;99.90
14682;DHT22;7429;52.498;13.480;2022-12-11T16:45:04;-0.80;99.90
14682;DHT22;7429;52.498;13.480;2022-12-11T16:48:10;-0.80;99.90
14682;DHT22;7429;52.498;13.480;2022-12-11T16:51:14;-0.80;99.90
14682;DHT22;7429;52.498;13.480;2022-12-11T16:54:17;-0.80;99.90
14682;DHT22;7429;52.498;13.480;2022-12-11T16:57:21;-0.80;99.90
14682;DHT22;7429;52.498;13.480;2022-12-11T17:00:24;-0.80;99.90
14682;DHT22;7429;52.498;13.480;2022-12-11T17:03:29;-0.80;99.90
14682;DHT22;7429;52.498;13.480;2022-12-11T17:06:33;-0.80;99.90
14682;DHT22;7429;52.498;13.480;2022-12-11T17:09:36;-0.80;99.90
14682;DHT22;7429;52.498;13.480;2022-12-11T17:12:39;-0.80;99.90
14682;DHT22;7429;52.498;13.480;2022-12-11T17:15:43;-0.70;99.90
14682;DHT22;7429;52.498;13.480;2022-12-11T17:18:48;-0.80;99.90
14682;DHT22;7429;52.498;13.480;2022-12-11T17:21:51;-0.80;99.90
14682;DHT22;7429;52.498;13.480;2022-12-11T17:24:54;-0.80;99.90
14682;DHT22;7429;52.498;13.480;2022-12-11T17:27:57;-0.80;99.90
14682;DHT22;7429;52.498;13.480;2022-12-11T17:31:03;-0.80;99.90
14682;DHT22;7429;52.498;13.480;2022-12-11T17:34:08;-0.80;99.90
14682;DHT22;7429;52.498;13.480;2022-12-11T17:37:11;-0.90;99.90
14682;DHT22;7429;52.498;13.480;2022-12-11T17:40:14;-0.90;99.90
14682;DHT22;7429;52.498;13.480;2022-12-11T17:43:17;-0.90;99.90
14682;DHT22;7429;52.498;13.480;2022-12-11T17:46:20;-0.90;99.90
14682;DHT22;7429;52.498;13.480;2022-12-11T17:49:25;-0.90;99.90
14682;DHT22;7429;52.498;13.480;2022-12-11T17:52:28;-0.90;99.90
14682;DHT22;7429;52.498;13.480;2022-12-11T17:55:37;-0.90;99.90
14682;DHT22;7429;52.498;13.480;2022-12-11T17:58:43;-0.90;99.90
14682;DHT22;7429;52.498;13.480;2022-12-11T18:01:46;-0.90;99.90
14682;DHT22;7429;52.498;13.480;2022-12-11T18:04:51;-0.90;99.90
14682;DHT22;7429;52.498;13.480;2022-12-11T18:07:55;-0.90;99.90
14682;DHT22;7429;52.498;13.480;2022-12-11T18:11:03;-0.90;99.90
14682;DHT22;7429;52.498;13.480;2022-12-11T18:14:07;-0.90;99.90
14682;DHT22;7429;52.498;13.480;2022-12-11T18:17:17;-0.90;99.90
14682;DHT22;7429;52.498;13.480;2022-12-11T18:20:22;-0.90;99.90
14682;DHT22;7429;52.498;13.480;2022-12-11T18:23:26;-0.80;99.90
14682;DHT22;7429;52.498;13.480;2022-12-11T18:26:32;-0.80;99.90
14682;DHT22;7429;52.498;13.480;2022-12-11T18:29:35;-0.80;99.90
14682;DHT22;7429;52.498;13.480;2022-12-11T18:32:38;-0.80;99.90
14682;DHT22;7429;52.498;13.480;2022-12-11T18:35:42;-0.90;99.90
14682;DHT22;7429;52.498;13.480;2022-12-11T18:38:45;-0.90;99.90
14682;DHT22;7429;52.498;13.480;2022-12-11T18:41:49;-0.90;99.90
14682;DHT22;7429;52.498;13.480;2022-12-11T18:45:12;-0.90;99.90
14682;DHT22;7429;52.498;13.480;2022-12-11T18:48:16;-0.80;99.90
14682;DHT22;7429;52.498;13.480;2022-12-11T18:51:21;-0.90;99.90
14682;DHT22;7429;52.498;13.480;2022-12-11T18:54:27;-0.90;99.90
14682;DHT22;7429;52.498;13.480;2022-12-11T18:57:30;-0.90;99.90
14682;DHT22;7429;52.498;13.480;2022-12-11T19:00:35;-0.90;99.90
14682;DHT22;7429;52.498;13.480;2022-12-11T19:03:39;-0.90;99.90
14682;DHT22;7429;52.498;13.480;2022-12-11T19:06:43;-1.00;99.90
14682;DHT22;7429;52.498;13.480;2022-12-11T19:09:46;-1.00;99.90
14682;DHT22;7429;52.498;13.480;2022-12-11T19:12:49;-1.00;99.90
14682;DHT22;7429;52.498;13.480;2022-12-11T19:15:52;-1.00;99.90
14682;DHT22;7429;52.498;13.480;2022-12-11T19:18:56;-1.00;99.90
14682;DHT22;7429;52.498;13.480;2022-12-11T19:22:02;-1.00;99.90
14682;DHT22;7429;52.498;13.480;2022-12-11T19:25:06;-1.00;99.90
14682;DHT22;7429;52.498;13.480;2022-12-11T19:28:10;-1.00;99.90
14682;DHT22;7429;52.498;13.480;2022-12-11T19:31:16;-0.90;99.90
14682;DHT22;7429;52.498;13.480;2022-12-11T19:34:21;-0.90;99.90
14682;DHT22;7429;52.498;13.480;2022-12-11T19:37:25;-1.00;99.90